createdAt,value
2024-03-01T00:03:10.930Z,99418.53
2024-03-01T00:08:12.333Z,99425.66
2024-03-01T00:13:13.772Z,99423.94
2024-03-01T00:18:15.245Z,99422.59
2024-03-01T00:23:16.676Z,99401.50
2024-03-01T00:28:18.118Z,99406.94
2024-03-01T00:33:19.535Z,99397.13
2024-03-01T00:38:21.272Z,99394.47
2024-03-01T00:43:22.697Z,99386.31
2024-03-01T00:48:24.765Z,99387.59
2024-03-01T00:53:26.179Z,99387.44
2024-03-01T00:58:27.784Z,99383.81
2024-03-01T01:03:29.218Z,99378.78
2024-03-01T01:08:30.617Z,99382.09
2024-03-01T01:13:32.155Z,99385.75
2024-03-01T01:18:33.618Z,99375.59
2024-03-01T01:23:35.007Z,99381.56
2024-03-01T01:28:36.449Z,99377.53
2024-03-01T01:33:37.866Z,99375.00
2024-03-01T01:38:39.223Z,99383.31
2024-03-01T01:43:44.026Z,99377.78
2024-03-01T01:48:46.295Z,99372.25
2024-03-01T01:53:48.533Z,99360.59
2024-03-01T01:58:51.183Z,99354.25
2024-03-01T02:03:53.086Z,99344.78
2024-03-01T02:08:54.562Z,99339.09
2024-03-01T02:13:56.525Z,99323.94
2024-03-01T02:18:58.155Z,99328.91
2024-03-01T02:23:59.648Z,99329.41
2024-03-01T02:29:02.404Z,99320.66
2024-03-01T02:34:03.848Z,99321.66
2024-03-01T02:39:17.733Z,99329.97
2024-03-01T02:44:19.110Z,99325.31
2024-03-01T02:49:20.668Z,99324.66
2024-03-01T02:54:22.109Z,99329.28
2024-03-01T02:59:23.626Z,99316.16
2024-03-01T03:04:25.072Z,99323.25
2024-03-01T03:09:26.539Z,99315.84
2024-03-01T03:14:28.014Z,99321.69
2024-03-01T03:19:30.604Z,99343.09
2024-03-01T03:24:32.040Z,99342.94
2024-03-01T03:29:34.489Z,99337.09
2024-03-01T03:34:35.930Z,99330.09
2024-03-01T03:39:37.379Z,99339.72
2024-03-01T03:44:38.783Z,99346.72
2024-03-01T03:49:40.178Z,99342.38
2024-03-01T03:54:41.553Z,99334.56
2024-03-01T03:59:42.944Z,99335.56
2024-03-01T04:04:44.323Z,99335.03
2024-03-01T04:09:45.712Z,99335.03
2024-03-01T04:14:47.165Z,99350.28
2024-03-01T04:19:48.555Z,99353.41
2024-03-01T04:24:50.739Z,99363.66
2024-03-01T04:29:52.229Z,99355.16
2024-03-01T04:34:55.472Z,99361.34
2024-03-01T04:39:56.959Z,99363.13
2024-03-01T04:44:58.323Z,99360.81
2024-03-01T04:49:59.968Z,99357.31
2024-03-01T04:55:01.416Z,99360.88
2024-03-01T05:00:04.351Z,99376.66
2024-03-01T05:05:07.016Z,99380.00
2024-03-01T05:10:12.677Z,99371.72
2024-03-01T05:15:16.509Z,99373.00
2024-03-01T05:20:18.149Z,99368.16
2024-03-01T05:25:20.401Z,99361.00
2024-03-01T05:30:35.995Z,99382.13
2024-03-01T05:35:45.166Z,99385.47
2024-03-01T05:40:52.380Z,99386.88
2024-03-01T05:45:57.260Z,99377.97
2024-03-01T05:51:00.032Z,99377.97
2024-03-01T05:56:01.490Z,99384.50
2024-03-01T06:01:05.398Z,99383.38
2024-03-01T06:06:08.550Z,99392.88
2024-03-01T06:11:10.192Z,99386.94
2024-03-01T06:16:11.678Z,99379.75
2024-03-01T06:21:21.593Z,99393.56
2024-03-01T06:26:23.535Z,99392.41
2024-03-01T06:31:25.073Z,99404.91
2024-03-01T06:36:27.271Z,99413.41
2024-03-01T06:41:28.669Z,99424.91
2024-03-01T06:46:30.921Z,99414.91
2024-03-01T06:51:32.572Z,99420.88
2024-03-01T06:56:34.073Z,99421.84
2024-03-01T07:01:36.084Z,99426.63
2024-03-01T07:06:37.749Z,99420.59
2024-03-01T07:11:39.215Z,99415.69
2024-03-01T07:16:41.132Z,99421.66
2024-03-01T07:21:42.560Z,99414.91
2024-03-01T07:26:44.128Z,99418.66
2024-03-01T07:31:45.617Z,99435.31
2024-03-01T07:36:47.050Z,99440.66
2024-03-01T07:41:48.575Z,99436.09
2024-03-01T07:46:57.057Z,99445.28
2024-03-01T07:51:58.807Z,99431.78
2024-03-01T07:57:00.372Z,99427.47
2024-03-01T08:02:02.252Z,99416.81
2024-03-01T08:07:03.946Z,99416.50
2024-03-01T08:12:06.884Z,99429.72
2024-03-01T08:17:09.276Z,99413.66
2024-03-01T08:22:16.070Z,99411.41
2024-03-01T08:27:25.409Z,99404.53
2024-03-01T08:32:43.434Z,99406.63
2024-03-01T08:37:45.030Z,99400.38
2024-03-01T08:42:46.451Z,99393.88
2024-03-01T08:48:00.175Z,99402.63
2024-03-01T08:53:02.030Z,99385.06
2024-03-01T08:58:03.710Z,99389.06
2024-03-01T09:03:11.352Z,99372.03
2024-03-01T09:08:23.571Z,99381.03
2024-03-01T09:13:26.965Z,99377.72
2024-03-01T09:18:48.185Z,99361.81
2024-03-01T09:23:49.934Z,99367.28
2024-03-01T09:28:51.707Z,99364.47
2024-03-01T09:33:53.274Z,99349.50
2024-03-01T09:39:05.569Z,99341.09
2024-03-01T09:44:23.997Z,99345.09
2024-03-01T09:50:14.814Z,99343.66
2024-03-01T09:55:47.254Z,99349.66
2024-03-01T10:01:12.277Z,99346.75
2024-03-01T10:06:28.461Z,99364.78
2024-03-01T10:11:38.740Z,99368.72
2024-03-01T10:17:04.855Z,99370.09
2024-03-01T10:22:21.404Z,99376.16
2024-03-01T10:27:40.099Z,99380.72
2024-03-01T10:33:04.956Z,99389.59
2024-03-01T10:38:32.474Z,99386.91
2024-03-01T10:43:45.774Z,99386.28
2024-03-01T10:49:03.423Z,99393.31
2024-03-01T10:54:08.337Z,99401.19
2024-03-01T10:59:19.486Z,99404.09
2024-03-01T11:04:29.359Z,99388.34
2024-03-01T11:09:55.601Z,99388.13
2024-03-01T11:15:08.978Z,99401.38
2024-03-01T11:20:17.260Z,99407.19
2024-03-01T11:25:22.312Z,99401.00
2024-03-01T11:30:28.567Z,99402.47
2024-03-01T11:35:34.200Z,99407.63
2024-03-01T11:41:10.436Z,99405.75
2024-03-01T11:46:17.938Z,99405.16
2024-03-01T11:51:38.610Z,99403.91
2024-03-01T11:57:06.056Z,99408.88
2024-03-01T12:02:34.613Z,99403.09
2024-03-01T12:08:07.441Z,99413.22
2024-03-01T12:13:14.647Z,99402.44
2024-03-01T12:18:30.363Z,99402.28
2024-03-01T12:23:53.054Z,99401.66
2024-03-01T12:29:19.349Z,99409.91
2024-03-01T12:34:38.431Z,99415.50
2024-03-01T12:39:45.875Z,99401.03
2024-03-01T12:44:57.413Z,99396.22
2024-03-01T12:50:20.473Z,99393.84
2024-03-01T12:55:33.099Z,99392.72
2024-03-01T13:00:53.675Z,99363.03
2024-03-01T13:05:55.963Z,99358.22
2024-03-01T13:11:02.475Z,99362.88
2024-03-01T13:16:19.690Z,99353.31
2024-03-01T13:21:30.474Z,99332.72
2024-03-01T13:26:38.955Z,99346.78
2024-03-01T13:32:00.358Z,99353.50
2024-03-01T13:37:10.471Z,99343.53
2024-03-01T13:42:39.205Z,99345.81
2024-03-01T13:47:47.707Z,99333.38
2024-03-01T13:52:49.526Z,99306.69
2024-03-01T13:57:51.605Z,99315.31
2024-03-01T14:02:53.598Z,99318.59
2024-03-01T14:07:58.571Z,99315.06
2024-03-01T14:13:01.148Z,99319.75
2024-03-01T14:18:02.585Z,99325.44
2024-03-01T14:23:05.179Z,99326.94
2024-03-01T14:28:07.952Z,99336.56
2024-03-01T14:33:11.180Z,99329.66
2024-03-01T14:38:16.433Z,99321.16
2024-03-01T14:43:17.900Z,99313.53
2024-03-01T14:48:34.068Z,99311.53
2024-03-01T14:53:48.240Z,99312.00
2024-03-01T14:58:50.858Z,99310.81
2024-03-01T15:03:52.316Z,99304.31
2024-03-01T15:08:53.708Z,99312.94
2024-03-01T15:13:55.335Z,99306.44
2024-03-01T15:18:58.253Z,99302.03
2024-03-01T15:24:02.530Z,99304.00
2024-03-01T15:29:05.865Z,99300.94
2024-03-01T15:34:07.943Z,99298.75
2024-03-01T15:39:11.301Z,99303.44
2024-03-01T15:44:12.715Z,99306.69
2024-03-01T15:49:14.276Z,99299.97
2024-03-01T15:54:15.741Z,99298.88
2024-03-01T15:59:17.915Z,99289.25
2024-03-01T16:04:20.883Z,99295.66
2024-03-01T16:09:22.250Z,99297.13
2024-03-01T16:14:23.950Z,99300.94
2024-03-01T16:19:25.426Z,99300.78
2024-03-01T16:24:26.932Z,99291.94
2024-03-01T16:29:33.341Z,99293.09
2024-03-01T16:34:34.749Z,99296.13
2024-03-01T16:39:40.034Z,99300.59
2024-03-01T16:44:44.997Z,99306.44
2024-03-01T16:49:46.573Z,99299.06
2024-03-01T16:54:48.586Z,99301.59
2024-03-01T16:59:50.369Z,99307.19
2024-03-01T17:04:51.822Z,99311.97
2024-03-01T17:09:53.981Z,99311.16
2024-03-01T17:14:56.228Z,99302.88
2024-03-01T17:19:57.636Z,99308.84
2024-03-01T17:24:59.073Z,99306.16
2024-03-01T17:30:00.596Z,99313.97
2024-03-01T17:35:01.982Z,99312.00
2024-03-01T17:40:03.565Z,99315.44
2024-03-01T17:45:05.672Z,99306.25
2024-03-01T17:50:08.337Z,99309.63
2024-03-01T17:55:10.162Z,99313.03
2024-03-01T18:00:12.850Z,99310.66
2024-03-01T18:05:14.459Z,99315.44
2024-03-01T18:10:20.355Z,99307.31
2024-03-01T18:15:21.852Z,99322.81
2024-03-01T18:20:24.108Z,99317.34
2024-03-01T18:25:25.676Z,99314.53
2024-03-01T18:30:27.104Z,99317.53
2024-03-01T18:35:28.891Z,99325.22
2024-03-01T18:40:30.707Z,99330.88
2024-03-01T18:45:32.076Z,99329.84
2024-03-01T18:50:33.559Z,99317.75
2024-03-01T18:55:35.147Z,99312.69
2024-03-01T19:00:41.067Z,99309.28
2024-03-01T19:05:45.014Z,99300.72
2024-03-01T19:10:46.568Z,99304.19
2024-03-01T19:15:48.057Z,99299.97
2024-03-01T19:20:49.431Z,99303.09
2024-03-01T19:25:50.819Z,99297.19
2024-03-01T19:30:52.394Z,99298.09
2024-03-01T19:35:54.900Z,99301.00
2024-03-01T19:40:56.478Z,99294.19
2024-03-01T19:45:57.933Z,99291.22
2024-03-01T19:50:59.392Z,99307.09
2024-03-01T19:56:00.764Z,99305.63
2024-03-01T20:01:02.267Z,99297.78
2024-03-01T20:06:04.222Z,99297.94
2024-03-01T20:11:05.645Z,99299.16
2024-03-01T20:16:07.185Z,99296.00
2024-03-01T20:21:08.608Z,99299.00
2024-03-01T20:26:10.017Z,99288.53
2024-03-01T20:31:11.797Z,99291.72
2024-03-01T20:36:13.333Z,99292.25
2024-03-01T20:41:14.733Z,99286.13
2024-03-01T20:46:16.162Z,99277.03
2024-03-01T20:51:17.548Z,99271.69
2024-03-01T20:56:19.161Z,99268.88
2024-03-01T21:01:20.760Z,99276.41
2024-03-01T21:06:22.361Z,99271.78
2024-03-01T21:11:25.711Z,99270.47
2024-03-01T21:16:27.144Z,99264.47
2024-03-01T21:21:28.708Z,99250.31
2024-03-01T21:26:30.120Z,99251.13
2024-03-01T21:31:31.473Z,99256.00
2024-03-01T21:36:32.860Z,99256.53
2024-03-01T21:41:34.387Z,99258.06
2024-03-01T21:46:35.869Z,99248.31
2024-03-01T21:51:37.369Z,99245.97
2024-03-01T21:56:38.920Z,99240.81
2024-03-01T22:01:40.390Z,99234.59
2024-03-01T22:06:42.867Z,99233.94
2024-03-01T22:11:48.320Z,99243.41
2024-03-01T22:16:49.821Z,99229.53
2024-03-01T22:21:52.308Z,99226.50
2024-03-01T22:26:53.973Z,99218.44
2024-03-01T22:31:55.778Z,99214.13
2024-03-01T22:36:57.554Z,99203.44
2024-03-01T22:41:59.188Z,99203.06
2024-03-01T22:47:00.862Z,99200.53
2024-03-01T22:52:02.624Z,99201.66
2024-03-01T22:57:04.183Z,99212.94
2024-03-01T23:02:06.709Z,99206.03
2024-03-01T23:07:09.546Z,99205.50
2024-03-01T23:12:12.331Z,99211.38
2024-03-01T23:17:14.587Z,99209.47
2024-03-01T23:22:17.447Z,99205.88
2024-03-01T23:27:19.727Z,99214.16
2024-03-01T23:32:21.386Z,99216.00
2024-03-01T23:37:22.963Z,99218.50
2024-03-01T23:42:24.490Z,99217.84
2024-03-01T23:47:25.990Z,99223.72
2024-03-01T23:52:28.565Z,99223.59
2024-03-01T23:57:30.018Z,99224.16
